createdAt,value
2022-07-29T00:01:49.279Z,24.36
2022-07-29T00:04:16.180Z,24.38
2022-07-29T00:06:42.902Z,24.34
2022-07-29T00:09:09.347Z,24.32
2022-07-29T00:11:35.696Z,24.20
2022-07-29T00:14:02.194Z,24.17
2022-07-29T00:16:28.645Z,24.03
2022-07-29T00:18:55.193Z,24.05
2022-07-29T00:21:21.736Z,24.14
2022-07-29T00:23:48.077Z,24.03
2022-07-29T00:26:14.423Z,23.82
2022-07-29T00:28:40.759Z,23.83
2022-07-29T00:31:07.284Z,23.68
2022-07-29T00:33:33.644Z,23.77
2022-07-29T00:36:00.002Z,23.75
2022-07-29T00:38:26.392Z,23.73
2022-07-29T00:40:52.749Z,23.78
2022-07-29T00:43:19.157Z,23.84
2022-07-29T00:45:45.788Z,23.87
2022-07-29T00:48:12.248Z,23.73
2022-07-29T00:50:39.086Z,23.74
2022-07-29T00:53:07.709Z,23.74
2022-07-29T00:55:34.458Z,23.66
2022-07-29T00:58:01.282Z,23.67
2022-07-29T01:00:29.593Z,23.54
2022-07-29T01:02:56.133Z,23.58
2022-07-29T01:05:24.947Z,23.57
2022-07-29T01:08:13.874Z,23.58
2022-07-29T01:10:42.003Z,23.56
2022-07-29T01:13:09.821Z,23.55
2022-07-29T01:15:49.227Z,23.52
2022-07-29T01:18:24.941Z,23.56
2022-07-29T01:21:28.658Z,23.62
2022-07-29T01:24:29.313Z,23.50
2022-07-29T01:27:16.346Z,23.55
2022-07-29T01:29:56.267Z,23.56
2022-07-29T01:32:29.563Z,23.58
2022-07-29T01:35:24.319Z,23.68
2022-07-29T01:38:10.354Z,23.59
2022-07-29T01:40:59.661Z,23.37
2022-07-29T01:43:35.119Z,23.37
2022-07-29T01:46:10.214Z,23.41
2022-07-29T01:48:54.216Z,23.54
2022-07-29T01:51:49.677Z,23.34
2022-07-29T01:54:29.848Z,23.43
2022-07-29T01:56:57.909Z,23.35
2022-07-29T01:59:26.208Z,23.21
2022-07-29T02:01:55.731Z,23.18
2022-07-29T02:04:29.095Z,23.22
2022-07-29T02:07:03.023Z,23.14
2022-07-29T02:09:32.272Z,23.16
2022-07-29T02:12:02.091Z,23.20
2022-07-29T02:14:31.302Z,23.19
2022-07-29T02:17:01.170Z,23.27
2022-07-29T02:19:30.156Z,23.33
2022-07-29T02:21:58.496Z,23.29
2022-07-29T02:24:26.331Z,23.25
2022-07-29T02:26:56.022Z,23.28
2022-07-29T02:29:24.469Z,23.25
2022-07-29T02:31:53.455Z,23.31
2022-07-29T02:34:21.653Z,23.32
2022-07-29T02:36:49.702Z,23.33
2022-07-29T02:39:17.047Z,23.28
2022-07-29T02:41:56.482Z,23.36
2022-07-29T02:44:25.646Z,23.48
2022-07-29T02:46:59.816Z,23.32
2022-07-29T02:49:37.541Z,23.27
2022-07-29T02:52:19.171Z,23.34
2022-07-29T02:54:52.477Z,23.31
2022-07-29T02:57:31.041Z,23.24
2022-07-29T03:00:00.410Z,23.23
2022-07-29T03:02:28.862Z,23.22
2022-07-29T03:04:58.862Z,23.23
2022-07-29T03:07:28.197Z,23.30
2022-07-29T03:09:55.366Z,23.20
2022-07-29T03:12:22.464Z,23.22
2022-07-29T03:14:49.606Z,23.23
2022-07-29T03:17:16.343Z,23.23
2022-07-29T03:19:43.666Z,23.39
2022-07-29T03:22:10.657Z,23.43
2022-07-29T03:24:37.770Z,23.40
2022-07-29T03:27:05.674Z,23.43
2022-07-29T03:29:33.935Z,23.54
2022-07-29T03:32:07.200Z,23.55
2022-07-29T03:34:33.894Z,23.54
2022-07-29T03:37:00.467Z,23.59
2022-07-29T03:39:30.334Z,23.46
2022-07-29T03:41:59.278Z,23.05
2022-07-29T03:44:28.190Z,23.15
2022-07-29T03:46:57.258Z,23.08
2022-07-29T03:49:24.902Z,23.10
2022-07-29T03:51:51.364Z,23.00
2022-07-29T03:54:17.863Z,23.10
2022-07-29T03:56:48.371Z,23.13
2022-07-29T03:59:16.522Z,23.10
2022-07-29T04:01:44.082Z,23.21
2022-07-29T04:04:11.186Z,23.31
2022-07-29T04:06:45.187Z,23.31
2022-07-29T04:09:12.725Z,23.34
2022-07-29T04:12:03.512Z,23.18
2022-07-29T04:14:27.041Z,23.30
2022-07-29T04:16:53.953Z,23.21
2022-07-29T04:19:20.326Z,23.24
2022-07-29T04:21:46.657Z,23.22
2022-07-29T04:24:13.363Z,23.12
2022-07-29T04:26:39.917Z,23.05
2022-07-29T04:29:06.249Z,22.29
2022-07-29T04:31:32.672Z,21.27
2022-07-29T04:33:59.072Z,21.73
2022-07-29T04:36:29.502Z,22.06
2022-07-29T04:38:56.301Z,22.32
2022-07-29T04:41:22.633Z,22.56
2022-07-29T04:43:50.176Z,22.56
2022-07-29T04:46:16.823Z,22.59
2022-07-29T04:48:43.261Z,22.05
2022-07-29T04:51:09.659Z,22.19
2022-07-29T04:53:36.030Z,22.41
2022-07-29T04:56:03.128Z,22.55
2022-07-29T04:58:29.472Z,22.64
2022-07-29T05:00:55.926Z,22.70
2022-07-29T05:03:22.393Z,22.65
2022-07-29T05:05:48.729Z,22.74
2022-07-29T05:08:15.139Z,22.65
2022-07-29T05:10:41.469Z,22.78
2022-07-29T05:13:08.749Z,22.82
2022-07-29T05:15:36.572Z,22.92
2022-07-29T05:18:03.445Z,22.99
2022-07-29T05:20:30.597Z,23.06
2022-07-29T05:22:58.514Z,23.01
2022-07-29T05:25:40.711Z,22.99
2022-07-29T05:28:11.339Z,22.98
2022-07-29T05:30:37.727Z,22.95
2022-07-29T05:33:04.145Z,22.60
2022-07-29T05:35:30.524Z,22.60
2022-07-29T05:37:56.909Z,22.63
2022-07-29T05:40:23.349Z,22.79
2022-07-29T05:42:49.722Z,22.91
2022-07-29T05:45:16.054Z,22.86
2022-07-29T05:47:42.375Z,22.52
2022-07-29T05:50:09.596Z,22.54
2022-07-29T05:52:35.927Z,22.20
2022-07-29T05:55:05.155Z,22.38
2022-07-29T05:57:31.896Z,21.99
2022-07-29T05:59:58.529Z,22.35
2022-07-29T06:02:25.137Z,22.39
2022-07-29T06:04:51.535Z,22.65
2022-07-29T06:07:17.946Z,22.84
2022-07-29T06:09:44.488Z,22.93
2022-07-29T06:12:10.861Z,23.07
2022-07-29T06:14:38.781Z,22.67
2022-07-29T06:17:06.459Z,22.92
2022-07-29T06:19:35.872Z,23.03
2022-07-29T06:22:02.435Z,23.17
2022-07-29T06:24:29.044Z,23.21
2022-07-29T06:26:55.858Z,23.23
2022-07-29T06:29:22.270Z,23.27
2022-07-29T06:31:48.729Z,23.26
2022-07-29T06:34:15.425Z,22.94
2022-07-29T06:36:41.979Z,22.75
2022-07-29T06:39:09.216Z,22.45
2022-07-29T06:41:35.640Z,22.28
2022-07-29T06:44:02.234Z,22.07
2022-07-29T06:46:28.694Z,21.97
2022-07-29T06:48:55.472Z,21.80
2022-07-29T06:51:23.206Z,21.73
2022-07-29T06:53:59.919Z,21.72
2022-07-29T06:56:39.084Z,21.71
2022-07-29T06:59:07.839Z,21.71
2022-07-29T07:01:34.258Z,21.74
2022-07-29T07:04:00.685Z,21.74
2022-07-29T07:06:27.078Z,21.51
2022-07-29T07:08:53.448Z,21.48
2022-07-29T07:11:19.959Z,21.47
2022-07-29T07:13:46.331Z,21.50
2022-07-29T07:16:12.719Z,21.68
2022-07-29T07:18:39.150Z,21.71
2022-07-29T07:21:06.560Z,21.69
2022-07-29T07:23:32.893Z,21.60
2022-07-29T07:25:59.227Z,21.63
2022-07-29T07:28:25.603Z,21.81
2022-07-29T07:30:53.066Z,21.90
2022-07-29T07:33:20.197Z,22.08
2022-07-29T07:35:46.719Z,22.39
2022-07-29T07:38:13.359Z,22.57
2022-07-29T07:40:40.059Z,22.53
2022-07-29T07:43:06.419Z,22.79
2022-07-29T07:45:37.950Z,23.10
2022-07-29T07:48:04.750Z,23.26
2022-07-29T07:50:31.095Z,23.04
2022-07-29T07:53:00.345Z,22.79
2022-07-29T07:55:27.052Z,22.53
2022-07-29T07:57:54.476Z,22.33
2022-07-29T08:00:23.145Z,22.18
2022-07-29T08:02:50.802Z,22.34
2022-07-29T08:05:18.073Z,22.08
2022-07-29T08:07:48.286Z,21.92
2022-07-29T08:10:36.358Z,21.66
2022-07-29T08:13:07.145Z,21.57
2022-07-29T08:15:33.610Z,21.47
2022-07-29T08:18:01.577Z,21.51
2022-07-29T08:20:30.714Z,21.55
2022-07-29T08:22:57.043Z,21.59
2022-07-29T08:25:23.833Z,21.56
2022-07-29T08:27:50.193Z,21.57
2022-07-29T08:30:16.634Z,21.45
2022-07-29T08:32:53.692Z,21.48
2022-07-29T08:35:22.195Z,21.61
2022-07-29T08:37:48.822Z,21.58
2022-07-29T08:40:15.354Z,21.67
2022-07-29T08:42:41.779Z,21.69
2022-07-29T08:45:08.934Z,21.75
2022-07-29T08:47:39.479Z,21.88
2022-07-29T08:50:07.505Z,22.12
2022-07-29T08:52:40.153Z,22.24
2022-07-29T08:55:08.542Z,22.33
2022-07-29T08:57:35.511Z,22.10
2022-07-29T09:00:11.457Z,22.20
2022-07-29T09:02:42.585Z,22.27
2022-07-29T09:05:09.415Z,21.93
2022-07-29T09:07:36.193Z,21.67
2022-07-29T09:10:02.675Z,21.76
2022-07-29T09:12:33.698Z,21.72
2022-07-29T09:15:02.572Z,21.88
2022-07-29T09:17:50.109Z,21.88
2022-07-29T09:20:19.291Z,21.76
2022-07-29T09:22:50.396Z,21.76
2022-07-29T09:25:37.046Z,21.70
2022-07-29T09:28:29.806Z,21.78
2022-07-29T09:30:59.267Z,21.89
2022-07-29T09:33:35.324Z,22.01
2022-07-29T09:36:06.118Z,22.03
2022-07-29T09:38:34.251Z,22.09
2022-07-29T09:41:05.690Z,22.18
2022-07-29T09:43:33.226Z,22.44
2022-07-29T09:46:15.695Z,22.45
2022-07-29T09:48:42.339Z,22.35
2022-07-29T09:51:26.905Z,22.61
2022-07-29T09:54:24.221Z,22.99
2022-07-29T09:56:51.024Z,22.93
2022-07-29T09:59:17.895Z,23.10
2022-07-29T10:01:44.409Z,23.13
2022-07-29T10:04:10.855Z,23.34
2022-07-29T10:07:03.584Z,23.37
2022-07-29T10:09:31.727Z,23.40
2022-07-29T10:12:08.929Z,23.33
2022-07-29T10:14:36.493Z,23.74
2022-07-29T10:17:05.548Z,23.65
2022-07-29T10:19:33.295Z,23.68
2022-07-29T10:22:00.759Z,23.73
2022-07-29T10:24:29.359Z,23.89
2022-07-29T10:27:02.613Z,24.22
2022-07-29T10:29:29.871Z,24.21
2022-07-29T10:31:56.616Z,24.16
2022-07-29T10:34:45.651Z,24.06
2022-07-29T10:37:27.142Z,23.95
2022-07-29T10:40:29.136Z,24.00
2022-07-29T10:42:59.265Z,24.26
2022-07-29T10:45:27.844Z,24.24
2022-07-29T10:48:07.947Z,24.30
2022-07-29T10:50:58.138Z,24.11
2022-07-29T10:53:25.051Z,24.37
2022-07-29T10:55:52.860Z,24.24
2022-07-29T10:58:27.134Z,24.38
2022-07-29T11:00:54.931Z,24.63
2022-07-29T11:03:41.641Z,24.90
2022-07-29T11:06:16.661Z,24.90
2022-07-29T11:08:44.546Z,25.05
2022-07-29T11:11:32.843Z,25.38
2022-07-29T11:14:01.368Z,25.47
2022-07-29T11:17:05.992Z,25.72
2022-07-29T11:19:33.623Z,25.79
2022-07-29T11:22:02.231Z,25.69
2022-07-29T11:24:31.925Z,25.56
2022-07-29T11:27:23.575Z,25.49
2022-07-29T11:29:58.506Z,25.46
2022-07-29T11:32:29.448Z,25.32
2022-07-29T11:35:37.315Z,25.39
2022-07-29T11:38:29.343Z,25.79
2022-07-29T11:41:27.583Z,25.83
2022-07-29T11:43:59.539Z,26.20
2022-07-29T11:46:51.134Z,25.77
2022-07-29T11:49:32.224Z,25.64
2022-07-29T11:54:57.106Z,25.70
2022-07-29T11:57:29.482Z,25.65
2022-07-29T12:00:09.822Z,25.97
2022-07-29T12:02:43.962Z,26.20
2022-07-29T12:05:23.984Z,26.41
2022-07-29T12:08:12.566Z,26.33
2022-07-29T12:10:41.715Z,26.08
2022-07-29T12:13:09.748Z,25.93
2022-07-29T12:15:45.632Z,26.09
2022-07-29T12:18:15.156Z,26.18
2022-07-29T12:20:41.601Z,26.00
2022-07-29T12:23:14.444Z,25.95
2022-07-29T12:25:44.185Z,26.14
2022-07-29T12:28:14.186Z,25.51
2022-07-29T12:30:51.827Z,25.59
2022-07-29T12:33:23.946Z,25.74
2022-07-29T12:36:06.157Z,25.37
2022-07-29T12:38:35.689Z,25.73
2022-07-29T12:41:02.708Z,25.69
2022-07-29T12:43:31.399Z,25.86
2022-07-29T12:45:58.919Z,25.59
2022-07-29T12:48:39.858Z,25.54
2022-07-29T12:51:08.378Z,25.69
2022-07-29T12:53:36.080Z,25.88
2022-07-29T12:56:20.670Z,25.90
2022-07-29T12:58:52.591Z,25.63
2022-07-29T13:01:20.802Z,25.43
2022-07-29T13:03:57.045Z,25.38
2022-07-29T13:06:45.970Z,25.31
2022-07-29T13:09:20.547Z,25.04
2022-07-29T13:11:50.259Z,25.28
2022-07-29T13:14:35.143Z,25.28
2022-07-29T13:17:11.487Z,25.15
2022-07-29T13:19:43.907Z,25.35
2022-07-29T13:22:11.615Z,25.20
2022-07-29T13:24:58.223Z,24.91
2022-07-29T13:27:26.968Z,25.14
2022-07-29T13:29:57.306Z,25.00
2022-07-29T13:32:28.480Z,25.04
2022-07-29T13:35:01.201Z,25.18
2022-07-29T13:37:34.837Z,25.51
2022-07-29T13:40:03.989Z,25.47
2022-07-29T13:42:30.553Z,25.28
2022-07-29T13:44:56.937Z,25.17
2022-07-29T13:47:32.076Z,24.86
2022-07-29T13:50:00.248Z,24.62
2022-07-29T13:52:26.599Z,24.54
2022-07-29T13:54:52.942Z,24.74
2022-07-29T13:57:20.088Z,25.00
2022-07-29T13:59:49.466Z,24.57
2022-07-29T14:02:19.805Z,24.49
2022-07-29T14:04:46.265Z,24.53
2022-07-29T14:07:16.401Z,24.24
2022-07-29T14:09:43.244Z,23.99
2022-07-29T14:12:09.873Z,24.08
2022-07-29T14:14:37.358Z,24.04
2022-07-29T14:17:04.240Z,23.77
2022-07-29T14:19:32.793Z,23.58
2022-07-29T14:21:59.701Z,23.60
2022-07-29T14:24:26.403Z,23.56
2022-07-29T14:26:52.812Z,23.32
2022-07-29T14:29:19.205Z,23.28
2022-07-29T14:31:45.611Z,23.28
2022-07-29T14:34:11.989Z,23.16
2022-07-29T14:36:38.333Z,23.00
2022-07-29T14:39:05.008Z,22.88
2022-07-29T14:41:31.523Z,22.78
2022-07-29T14:43:58.655Z,22.58
2022-07-29T14:46:25.010Z,22.55
2022-07-29T14:48:51.447Z,22.60
2022-07-29T14:51:18.273Z,22.70
2022-07-29T14:53:44.620Z,22.87
2022-07-29T14:56:35.325Z,23.08
2022-07-29T14:58:58.228Z,23.19
2022-07-29T15:01:25.589Z,22.96
2022-07-29T15:03:55.767Z,23.03
2022-07-29T15:06:26.125Z,23.33
2022-07-29T15:08:52.514Z,23.42
2022-07-29T15:11:18.838Z,23.36
2022-07-29T15:13:45.171Z,23.02
2022-07-29T15:16:11.564Z,22.78
2022-07-29T15:18:39.157Z,22.45
2022-07-29T15:21:07.747Z,22.36
2022-07-29T15:23:36.970Z,22.50
2022-07-29T15:26:04.845Z,22.35
2022-07-29T15:28:31.215Z,22.11
2022-07-29T15:30:57.561Z,21.96
2022-07-29T15:33:24.073Z,21.99
2022-07-29T15:35:50.437Z,22.07
2022-07-29T15:38:17.446Z,22.05
2022-07-29T15:40:44.496Z,21.77
2022-07-29T15:43:10.890Z,21.47
2022-07-29T15:45:40.553Z,21.41
2022-07-29T15:48:08.902Z,21.52
2022-07-29T15:50:35.569Z,21.54
2022-07-29T15:53:02.498Z,21.45
2022-07-29T15:55:28.866Z,21.41
2022-07-29T15:58:00.302Z,21.29
2022-07-29T16:00:27.198Z,21.43
2022-07-29T16:02:53.589Z,21.45
2022-07-29T16:05:19.991Z,21.23
2022-07-29T16:07:46.474Z,21.15
2022-07-29T16:10:12.807Z,21.01
2022-07-29T16:12:39.172Z,20.97
2022-07-29T16:15:09.715Z,20.99
2022-07-29T16:17:36.868Z,21.02
2022-07-29T16:20:04.109Z,21.10
2022-07-29T16:22:30.544Z,21.15
2022-07-29T16:24:57.126Z,21.22
2022-07-29T16:27:26.938Z,21.06
2022-07-29T16:30:02.136Z,20.98
2022-07-29T16:32:28.551Z,20.89
2022-07-29T16:34:54.913Z,20.96
2022-07-29T16:37:21.314Z,20.95
2022-07-29T16:39:47.690Z,20.90
2022-07-29T16:42:31.046Z,20.76
2022-07-29T16:45:00.448Z,20.66
2022-07-29T16:47:29.211Z,20.65
2022-07-29T16:49:56.204Z,20.60
2022-07-29T16:52:22.526Z,20.67
2022-07-29T16:54:48.885Z,20.88
2022-07-29T16:57:15.244Z,20.84
2022-07-29T16:59:43.430Z,20.96
2022-07-29T17:02:11.721Z,20.93
2022-07-29T17:04:38.210Z,21.09
2022-07-29T17:07:04.727Z,21.31
2022-07-29T17:09:31.070Z,21.10
2022-07-29T17:11:57.651Z,21.02
2022-07-29T17:14:29.617Z,21.10
2022-07-29T17:17:02.368Z,21.30
2022-07-29T17:19:31.840Z,21.22
2022-07-29T17:22:06.776Z,21.25
2022-07-29T17:24:35.992Z,21.37
2022-07-29T17:27:02.340Z,21.27
2022-07-29T17:29:28.732Z,21.13
2022-07-29T17:31:55.170Z,21.07
2022-07-29T17:34:21.504Z,21.10
2022-07-29T17:36:48.192Z,20.86
2022-07-29T17:39:14.559Z,21.07
2022-07-29T17:41:40.970Z,21.28
2022-07-29T17:44:09.317Z,21.66
2022-07-29T17:46:35.720Z,21.90
2022-07-29T17:49:02.215Z,21.96
2022-07-29T17:51:29.441Z,22.36
2022-07-29T17:53:55.957Z,22.25
2022-07-29T17:56:22.532Z,22.14
2022-07-29T17:58:48.922Z,22.04
2022-07-29T18:01:15.530Z,22.06
2022-07-29T18:03:43.283Z,22.15
2022-07-29T18:06:12.823Z,22.12
2022-07-29T18:08:39.868Z,21.93
2022-07-29T18:11:06.432Z,22.02
2022-07-29T18:13:32.828Z,21.93
2022-07-29T18:16:00.627Z,21.74
2022-07-29T18:18:27.344Z,21.66
2022-07-29T18:20:53.883Z,21.69
2022-07-29T18:23:20.268Z,21.42
2022-07-29T18:25:46.654Z,21.30
2022-07-29T18:28:13.004Z,21.20
2022-07-29T18:30:39.412Z,21.16
2022-07-29T18:33:20.754Z,21.03
2022-07-29T18:35:50.013Z,21.07
2022-07-29T18:38:17.084Z,20.99
2022-07-29T18:40:45.326Z,20.90
2022-07-29T18:43:12.373Z,20.76
2022-07-29T18:45:39.466Z,20.81
2022-07-29T18:48:08.278Z,20.80
2022-07-29T18:50:39.438Z,20.85
2022-07-29T18:53:06.030Z,20.72
2022-07-29T18:55:32.412Z,20.65
2022-07-29T18:57:58.777Z,20.77
2022-07-29T19:00:26.414Z,20.78
2022-07-29T19:02:53.678Z,20.95
2022-07-29T19:05:20.942Z,20.94
2022-07-29T19:07:47.286Z,20.98
2022-07-29T19:10:13.907Z,21.03
2022-07-29T19:12:40.437Z,21.17
2022-07-29T19:15:08.388Z,21.07
2022-07-29T19:17:34.742Z,20.98
2022-07-29T19:20:01.353Z,20.81
2022-07-29T19:22:27.729Z,20.95
2022-07-29T19:24:54.079Z,20.99
2022-07-29T19:27:20.449Z,21.00
2022-07-29T19:29:46.854Z,20.79
2022-07-29T19:32:14.391Z,20.70
2022-07-29T19:35:10.108Z,20.77
2022-07-29T19:37:37.202Z,20.84
2022-07-29T19:40:04.256Z,20.88
2022-07-29T19:42:30.656Z,21.05
2022-07-29T19:44:56.997Z,21.20
2022-07-29T19:47:23.386Z,21.19
2022-07-29T19:49:49.786Z,21.33
2022-07-29T19:52:16.176Z,21.55
2022-07-29T19:54:42.506Z,21.53
2022-07-29T19:57:09.878Z,21.65
2022-07-29T19:59:36.210Z,21.78
2022-07-29T20:02:02.725Z,21.93
2022-07-29T20:04:29.208Z,21.87
2022-07-29T20:07:01.359Z,21.44
2022-07-29T20:09:28.563Z,21.50
2022-07-29T20:11:55.019Z,21.37
2022-07-29T20:14:21.884Z,20.97
2022-07-29T20:16:48.739Z,20.99
2022-07-29T20:19:15.132Z,20.94
2022-07-29T20:21:41.520Z,21.06
2022-07-29T20:24:08.633Z,21.13
2022-07-29T20:26:35.149Z,21.09
2022-07-29T20:29:04.983Z,21.16
2022-07-29T20:31:32.303Z,21.27
2022-07-29T20:33:59.083Z,21.32
2022-07-29T20:36:25.472Z,21.32
2022-07-29T20:38:51.864Z,21.43
2022-07-29T20:41:18.191Z,21.39
2022-07-29T20:43:45.402Z,21.17
2022-07-29T20:46:12.227Z,20.97
2022-07-29T20:48:39.886Z,20.79
2022-07-29T20:51:06.412Z,20.87
2022-07-29T20:53:33.706Z,20.88
2022-07-29T20:56:00.098Z,20.95
2022-07-29T20:58:26.848Z,20.83
2022-07-29T21:00:53.191Z,20.57
2022-07-29T21:03:19.576Z,20.74
2022-07-29T21:05:45.924Z,20.80
2022-07-29T21:08:12.268Z,21.01
2022-07-29T21:10:38.678Z,20.99
2022-07-29T21:13:05.046Z,21.01
2022-07-29T21:15:32.444Z,20.81
2022-07-29T21:18:07.292Z,20.79
2022-07-29T21:20:33.718Z,20.64
2022-07-29T21:23:00.314Z,20.55
2022-07-29T21:25:26.987Z,20.60
2022-07-29T21:28:12.041Z,20.57
2022-07-29T21:30:38.581Z,20.62
2022-07-29T21:33:04.990Z,20.31
2022-07-29T21:35:58.898Z,20.33
2022-07-29T21:38:18.358Z,20.36
2022-07-29T21:40:50.272Z,20.37
2022-07-29T21:43:17.933Z,20.27
2022-07-29T21:45:47.574Z,20.12
2022-07-29T21:48:14.061Z,20.19
2022-07-29T21:50:40.399Z,20.25
2022-07-29T21:53:06.894Z,20.48
2022-07-29T21:55:33.493Z,20.69
2022-07-29T21:57:59.979Z,20.78
2022-07-29T22:00:26.566Z,20.98
2022-07-29T22:02:53.163Z,21.07
2022-07-29T22:05:19.693Z,21.20
2022-07-29T22:07:54.410Z,21.34
2022-07-29T22:10:24.826Z,21.39
2022-07-29T22:12:52.132Z,21.40
2022-07-29T22:15:18.574Z,21.27
2022-07-29T22:17:45.117Z,21.32
2022-07-29T22:20:11.780Z,21.23
2022-07-29T22:22:38.691Z,21.32
2022-07-29T22:25:05.661Z,21.17
2022-07-29T22:27:32.065Z,21.31
2022-07-29T22:29:58.396Z,20.82
2022-07-29T22:32:25.030Z,21.00
2022-07-29T22:34:51.467Z,21.11
2022-07-29T22:37:17.851Z,21.26
2022-07-29T22:39:44.466Z,20.88
2022-07-29T22:42:10.999Z,20.76
2022-07-29T22:44:37.342Z,20.86
2022-07-29T22:47:04.654Z,21.02
2022-07-29T22:49:31.106Z,21.02
2022-07-29T22:51:57.452Z,21.11
2022-07-29T22:54:23.818Z,20.88
2022-07-29T22:56:50.149Z,21.10
2022-07-29T22:59:16.486Z,21.18
2022-07-29T23:01:42.867Z,21.21
2022-07-29T23:04:09.334Z,20.99
2022-07-29T23:06:36.006Z,21.14
2022-07-29T23:09:02.581Z,21.18
2022-07-29T23:11:28.989Z,21.03
2022-07-29T23:13:55.349Z,21.02
2022-07-29T23:16:26.668Z,20.98
2022-07-29T23:18:53.825Z,20.93
2022-07-29T23:21:20.830Z,20.81
2022-07-29T23:23:48.376Z,20.79
2022-07-29T23:26:16.691Z,20.75
2022-07-29T23:28:44.341Z,20.81
2022-07-29T23:31:11.246Z,20.73
2022-07-29T23:33:37.642Z,20.61
2022-07-29T23:36:04.022Z,20.43
2022-07-29T23:38:30.473Z,20.40
2022-07-29T23:40:58.448Z,20.42
2022-07-29T23:43:25.029Z,20.49
2022-07-29T23:45:51.429Z,20.66
2022-07-29T23:48:20.882Z,20.56
2022-07-29T23:50:47.290Z,20.66
2022-07-29T23:53:13.696Z,20.49
2022-07-29T23:55:40.092Z,20.49
2022-07-29T23:58:06.445Z,20.66
